EGNE weather

Retford Gamston Airport
Gamston, England, United Kingdom

Public forecast

Using degrees Celsius for public forecast. Weather courtesy of forecast.io.

Closest aviation weather report (METAR) to Retford Gamston Airport

Closest report is Robin Hood Doncaster Sheffield Airport, 12.2 nm (22.6 km) N. Retrieved 2019/10/17 14:20 UTC (0 seconds ago):

EGCN 171420Z 15009KT 9999 SCT025 BKN030 14/09 Q1003

Closest aviation forecast (TAF) to Retford Gamston Airport

Closest forecast is Robin Hood Doncaster Sheffield Airport, 12.2 nm (22.6 km) N. Retrieved 2019/10/17 12:00 UTC (2 hours ago):

TAF EGCN 171059Z 1712/1812 16008KT 9999 SCT030 PROB30 TEMPO 1714/1722 7000 SHRA PROB30 TEMPO 1722/1802 BKN010 TEMPO 1802/1808 6000 SHRA BKN010 PROB30 TEMPO 1802/1808 BKN005 BECMG 1809/1812 22010KT